This is the latest recevied weather packets stored in our database for station/object WC4PEM-6. If no packets are shown the sender has not sent any weather packets the latest 1 day(s).
| Time | Temp. | Humidity | Pressure | Rain* | Wind** | Luminosity | Snow |
|---|---|---|---|---|---|---|---|
| 1778009105 | 30° C | 46% | 1014.3 hPa | 0 mm | 0.89 m/s, 126° | - | - |
| 1778008805 | 29.44° C | 47% | 1014.6 hPa | 0 mm | 0.89 m/s, 93° | - | - |
| 1778008558 | 30° C | 46% | 1014.5 hPa | 0 mm | 1.34 m/s, 178° | - | - |
| 1778008505 | 30° C | 46% | 1014.5 hPa | 0 mm | 1.34 m/s, 178° | - | - |
| 1778008205 | 30° C | 47% | 1014.5 hPa | 0 mm | 1.34 m/s, 93° | - | - |
| 1778007905 | 30° C | 45% | 1014.5 hPa | 0 mm | 1.79 m/s, 67° | - | - |
| 1778007605 | 30° C | 47% | 1014.5 hPa | 0 mm | 2.24 m/s, 67° | - | - |
| 1778007305 | 29.44° C | 47% | 1014.5 hPa | 0 mm | 1.34 m/s, 16° | - | - |
| 1778007005 | 28.89° C | 48% | 1014.9 hPa | 0 mm | 0.89 m/s, 265° | - | - |
| 1778006764 | 28.89° C | 48% | 1014.7 hPa | 0 mm | 0.89 m/s, 51° | - | - |
| 1778006705 | 28.89° C | 48% | 1014.7 hPa | 0 mm | 0.89 m/s, 51° | - | - |
| 1778006405 | 28.89° C | 49% | 1014.8 hPa | 0 mm | 1.34 m/s, 93° | - | - |
| 1778006158 | 29.44° C | 48% | 1014.8 hPa | 0 mm | 1.34 m/s, 178° | - | - |
| 1778006105 | 29.44° C | 48% | 1014.8 hPa | 0 mm | 1.34 m/s, 178° | - | - |
| 1778005805 | 29.44° C | 46% | 1014.8 hPa | 0 mm | 1.34 m/s, 78° | - | - |
| 1778005578 | 29.44° C | 47% | 1014.7 hPa | 0 mm | 1.34 m/s, 265° | - | - |
| 1778005505 | 29.44° C | 47% | 1014.7 hPa | 0 mm | 1.34 m/s, 265° | - | - |
| 1778005205 | 28.89° C | 48% | 1014.9 hPa | 0 mm | 1.34 m/s, 275° | - | - |
| 1778004971 | 28.89° C | 49% | 1015.4 hPa | 0 mm | 1.34 m/s, 342° | - | - |
| 1778004905 | 28.89° C | 49% | 1015.4 hPa | 0 mm | 1.34 m/s, 342° | - | - |
| 1778004708 | 28.89° C | 48% | 1015.2 hPa | 0 mm | 1.34 m/s, 93° | - | - |
| 1778004605 | 28.89° C | 48% | 1015.2 hPa | 0 mm | 1.34 m/s, 93° | - | - |
| 1778004439 | 28.89° C | 48% | 1015.2 hPa | 0 mm | 1.34 m/s, 56° | - | - |
| 1778004305 | 28.89° C | 48% | 1015.2 hPa | 0 mm | 1.34 m/s, 56° | - | - |
| 1778004026 | 28.33° C | 50% | 1015.3 hPa | 0 mm | 1.34 m/s, 346° | - | - |
* Rain latest hour (hover to see other rain measurements)
** Current wind speed in m/s (hover to see current wind gust speed)